sensor_id;sensor_type;location;lat;lon;timestamp;P1;durP1;ratioP1;P2;durP2;ratioP2
18336;SDS011;9294;51.106;7.028;2022-08-19T00:00:20;9.43;;;8.77;;
18336;SDS011;9294;51.106;7.028;2022-08-19T00:02:47;9.40;;;8.70;;
18336;SDS011;9294;51.106;7.028;2022-08-19T00:05:14;8.82;;;8.30;;
18336;SDS011;9294;51.106;7.028;2022-08-19T00:07:41;9.15;;;8.55;;
18336;SDS011;9294;51.106;7.028;2022-08-19T00:10:09;9.27;;;8.68;;
18336;SDS011;9294;51.106;7.028;2022-08-19T00:12:39;8.95;;;8.35;;
18336;SDS011;9294;51.106;7.028;2022-08-19T00:15:06;9.52;;;8.82;;
18336;SDS011;9294;51.106;7.028;2022-08-19T00:17:35;8.82;;;8.23;;
18336;SDS011;9294;51.106;7.028;2022-08-19T00:20:02;9.18;;;8.57;;
18336;SDS011;9294;51.106;7.028;2022-08-19T00:22:30;8.95;;;8.25;;
18336;SDS011;9294;51.106;7.028;2022-08-19T00:24:57;9.02;;;8.32;;
18336;SDS011;9294;51.106;7.028;2022-08-19T00:27:24;9.52;;;8.65;;
18336;SDS011;9294;51.106;7.028;2022-08-19T00:29:52;9.95;;;9.25;;
18336;SDS011;9294;51.106;7.028;2022-08-19T00:32:19;9.30;;;8.70;;
18336;SDS011;9294;51.106;7.028;2022-08-19T00:34:46;9.75;;;8.93;;
18336;SDS011;9294;51.106;7.028;2022-08-19T00:37:13;8.93;;;8.32;;
18336;SDS011;9294;51.106;7.028;2022-08-19T00:39:40;7.53;;;7.13;;
18336;SDS011;9294;51.106;7.028;2022-08-19T00:42:07;8.68;;;7.97;;
18336;SDS011;9294;51.106;7.028;2022-08-19T00:44:34;8.38;;;7.80;;
18336;SDS011;9294;51.106;7.028;2022-08-19T00:47:02;8.95;;;8.25;;
18336;SDS011;9294;51.106;7.028;2022-08-19T00:49:30;9.23;;;8.60;;
18336;SDS011;9294;51.106;7.028;2022-08-19T00:51:59;8.45;;;7.95;;
18336;SDS011;9294;51.106;7.028;2022-08-19T00:54:28;9.50;;;8.75;;
18336;SDS011;9294;51.106;7.028;2022-08-19T00:56:56;8.88;;;8.27;;
18336;SDS011;9294;51.106;7.028;2022-08-19T00:59:23;8.93;;;8.35;;
18336;SDS011;9294;51.106;7.028;2022-08-19T01:01:50;8.98;;;8.18;;
18336;SDS011;9294;51.106;7.028;2022-08-19T01:04:19;9.57;;;8.98;;
18336;SDS011;9294;51.106;7.028;2022-08-19T01:06:46;8.27;;;7.78;;
18336;SDS011;9294;51.106;7.028;2022-08-19T01:09:13;9.02;;;8.43;;
18336;SDS011;9294;51.106;7.028;2022-08-19T01:11:41;9.73;;;9.02;;
18336;SDS011;9294;51.106;7.028;2022-08-19T01:14:10;8.25;;;7.75;;
18336;SDS011;9294;51.106;7.028;2022-08-19T01:16:37;9.18;;;8.50;;
18336;SDS011;9294;51.106;7.028;2022-08-19T01:19:08;8.18;;;7.68;;
18336;SDS011;9294;51.106;7.028;2022-08-19T01:21:40;9.30;;;8.70;;
18336;SDS011;9294;51.106;7.028;2022-08-19T01:24:14;8.93;;;8.32;;
18336;SDS011;9294;51.106;7.028;2022-08-19T01:26:42;9.45;;;8.73;;
18336;SDS011;9294;51.106;7.028;2022-08-19T01:29:10;9.07;;;8.48;;
18336;SDS011;9294;51.106;7.028;2022-08-19T01:31:37;8.50;;;7.93;;
18336;SDS011;9294;51.106;7.028;2022-08-19T01:34:05;9.60;;;8.95;;
18336;SDS011;9294;51.106;7.028;2022-08-19T01:36:34;8.88;;;8.18;;
18336;SDS011;9294;51.106;7.028;2022-08-19T01:39:03;8.75;;;8.02;;
18336;SDS011;9294;51.106;7.028;2022-08-19T01:41:34;8.10;;;7.57;;
18336;SDS011;9294;51.106;7.028;2022-08-19T01:44:01;9.30;;;8.70;;
18336;SDS011;9294;51.106;7.028;2022-08-19T01:46:29;9.30;;;8.68;;
18336;SDS011;9294;51.106;7.028;2022-08-19T01:48:57;8.35;;;7.85;;
18336;SDS011;9294;51.106;7.028;2022-08-19T01:51:24;9.25;;;8.65;;
18336;SDS011;9294;51.106;7.028;2022-08-19T01:53:51;8.95;;;8.35;;
18336;SDS011;9294;51.106;7.028;2022-08-19T01:56:18;8.93;;;8.23;;
18336;SDS011;9294;51.106;7.028;2022-08-19T01:58:48;9.02;;;8.43;;
18336;SDS011;9294;51.106;7.028;2022-08-19T02:01:18;9.65;;;9.05;;
18336;SDS011;9294;51.106;7.028;2022-08-19T02:03:45;9.35;;;8.65;;
18336;SDS011;9294;51.106;7.028;2022-08-19T02:06:12;9.27;;;8.57;;
18336;SDS011;9294;51.106;7.028;2022-08-19T02:08:42;8.32;;;7.72;;
18336;SDS011;9294;51.106;7.028;2022-08-19T02:11:17;8.52;;;7.82;;
18336;SDS011;9294;51.106;7.028;2022-08-19T02:13:44;8.85;;;8.10;;
18336;SDS011;9294;51.106;7.028;2022-08-19T02:16:12;8.68;;;8.10;;
18336;SDS011;9294;51.106;7.028;2022-08-19T02:18:39;9.35;;;8.65;;
18336;SDS011;9294;51.106;7.028;2022-08-19T02:21:06;9.05;;;8.40;;
18336;SDS011;9294;51.106;7.028;2022-08-19T02:23:33;9.40;;;8.70;;
18336;SDS011;9294;51.106;7.028;2022-08-19T02:25:59;8.55;;;8.00;;
18336;SDS011;9294;51.106;7.028;2022-08-19T02:28:27;9.10;;;8.35;;
18336;SDS011;9294;51.106;7.028;2022-08-19T02:30:54;9.10;;;8.35;;
18336;SDS011;9294;51.106;7.028;2022-08-19T02:33:22;9.13;;;8.52;;
18336;SDS011;9294;51.106;7.028;2022-08-19T02:35:49;7.95;;;7.50;;
18336;SDS011;9294;51.106;7.028;2022-08-19T02:38:16;9.73;;;8.98;;
18336;SDS011;9294;51.106;7.028;2022-08-19T02:40:52;8.98;;;8.38;;
18336;SDS011;9294;51.106;7.028;2022-08-19T02:43:19;8.63;;;8.02;;
18336;SDS011;9294;51.106;7.028;2022-08-19T02:45:47;9.23;;;8.52;;
18336;SDS011;9294;51.106;7.028;2022-08-19T02:48:16;9.15;;;8.45;;
18336;SDS011;9294;51.106;7.028;2022-08-19T02:50:45;8.70;;;8.13;;
18336;SDS011;9294;51.106;7.028;2022-08-19T02:53:15;8.48;;;7.88;;
18336;SDS011;9294;51.106;7.028;2022-08-19T02:55:42;8.55;;;7.85;;
18336;SDS011;9294;51.106;7.028;2022-08-19T02:58:11;9.10;;;8.40;;
18336;SDS011;9294;51.106;7.028;2022-08-19T03:00:41;8.52;;;7.93;;
18336;SDS011;9294;51.106;7.028;2022-08-19T03:03:09;9.00;;;8.27;;
18336;SDS011;9294;51.106;7.028;2022-08-19T03:05:36;9.75;;;8.95;;
18336;SDS011;9294;51.106;7.028;2022-08-19T03:08:04;8.95;;;8.35;;
18336;SDS011;9294;51.106;7.028;2022-08-19T03:10:31;8.50;;;7.80;;
18336;SDS011;9294;51.106;7.028;2022-08-19T03:12:59;9.05;;;8.45;;
18336;SDS011;9294;51.106;7.028;2022-08-19T03:15:25;8.85;;;8.15;;
18336;SDS011;9294;51.106;7.028;2022-08-19T03:17:52;8.85;;;8.23;;
18336;SDS011;9294;51.106;7.028;2022-08-19T03:20:19;9.35;;;8.75;;
18336;SDS011;9294;51.106;7.028;2022-08-19T03:22:46;9.35;;;8.65;;
18336;SDS011;9294;51.106;7.028;2022-08-19T03:25:14;9.05;;;8.45;;
18336;SDS011;9294;51.106;7.028;2022-08-19T03:27:41;9.02;;;8.43;;
18336;SDS011;9294;51.106;7.028;2022-08-19T03:30:09;9.50;;;8.90;;
18336;SDS011;9294;51.106;7.028;2022-08-19T03:32:36;8.38;;;7.85;;
18336;SDS011;9294;51.106;7.028;2022-08-19T03:35:03;8.82;;;8.23;;
18336;SDS011;9294;51.106;7.028;2022-08-19T03:37:30;8.80;;;8.23;;
18336;SDS011;9294;51.106;7.028;2022-08-19T03:39:57;9.35;;;8.55;;
18336;SDS011;9294;51.106;7.028;2022-08-19T03:42:26;8.77;;;8.07;;
18336;SDS011;9294;51.106;7.028;2022-08-19T03:44:53;9.05;;;8.38;;
18336;SDS011;9294;51.106;7.028;2022-08-19T03:47:20;8.90;;;8.20;;
18336;SDS011;9294;51.106;7.028;2022-08-19T03:49:47;9.15;;;8.45;;
18336;SDS011;9294;51.106;7.028;2022-08-19T03:52:14;9.73;;;9.07;;
18336;SDS011;9294;51.106;7.028;2022-08-19T03:54:40;9.35;;;8.52;;
18336;SDS011;9294;51.106;7.028;2022-08-19T03:57:08;9.57;;;8.88;;
18336;SDS011;9294;51.106;7.028;2022-08-19T03:59:36;8.75;;;8.15;;
18336;SDS011;9294;51.106;7.028;2022-08-19T04:02:06;9.23;;;8.52;;
18336;SDS011;9294;51.106;7.028;2022-08-19T04:04:34;9.23;;;8.40;;
18336;SDS011;9294;51.106;7.028;2022-08-19T04:07:02;9.60;;;8.90;;
18336;SDS011;9294;51.106;7.028;2022-08-19T04:09:29;9.13;;;8.43;;
18336;SDS011;9294;51.106;7.028;2022-08-19T04:11:57;9.80;;;9.02;;
18336;SDS011;9294;51.106;7.028;2022-08-19T04:14:25;9.40;;;8.73;;
18336;SDS011;9294;51.106;7.028;2022-08-19T04:16:55;9.35;;;8.68;;
18336;SDS011;9294;51.106;7.028;2022-08-19T04:19:23;8.23;;;7.72;;
18336;SDS011;9294;51.106;7.028;2022-08-19T04:21:50;9.05;;;8.35;;
18336;SDS011;9294;51.106;7.028;2022-08-19T04:24:19;9.15;;;8.45;;
18336;SDS011;9294;51.106;7.028;2022-08-19T04:26:47;9.38;;;8.68;;
18336;SDS011;9294;51.106;7.028;2022-08-19T04:29:14;8.35;;;7.78;;
18336;SDS011;9294;51.106;7.028;2022-08-19T04:31:44;8.57;;;7.97;;
18336;SDS011;9294;51.106;7.028;2022-08-19T04:34:13;8.98;;;8.38;;
18336;SDS011;9294;51.106;7.028;2022-08-19T04:36:43;9.68;;;8.93;;
18336;SDS011;9294;51.106;7.028;2022-08-19T04:39:11;9.00;;;8.30;;
18336;SDS011;9294;51.106;7.028;2022-08-19T04:41:40;9.73;;;9.02;;
18336;SDS011;9294;51.106;7.028;2022-08-19T04:44:25;9.63;;;8.93;;
18336;SDS011;9294;51.106;7.028;2022-08-19T04:46:55;9.60;;;8.95;;
18336;SDS011;9294;51.106;7.028;2022-08-19T04:49:24;10.40;;;9.60;;
18336;SDS011;9294;51.106;7.028;2022-08-19T04:51:52;9.00;;;8.38;;
18336;SDS011;9294;51.106;7.028;2022-08-19T04:54:20;9.93;;;9.23;;
18336;SDS011;9294;51.106;7.028;2022-08-19T04:56:48;9.88;;;9.07;;
18336;SDS011;9294;51.106;7.028;2022-08-19T04:59:16;9.57;;;8.88;;
18336;SDS011;9294;51.106;7.028;2022-08-19T05:01:45;9.75;;;9.00;;
18336;SDS011;9294;51.106;7.028;2022-08-19T05:04:14;9.32;;;8.52;;
18336;SDS011;9294;51.106;7.028;2022-08-19T05:06:43;9.13;;;8.52;;
18336;SDS011;9294;51.106;7.028;2022-08-19T05:09:12;9.95;;;8.98;;
18336;SDS011;9294;51.106;7.028;2022-08-19T05:11:39;9.25;;;8.55;;
18336;SDS011;9294;51.106;7.028;2022-08-19T05:14:05;10.38;;;9.65;;
18336;SDS011;9294;51.106;7.028;2022-08-19T05:16:32;10.35;;;9.60;;
18336;SDS011;9294;51.106;7.028;2022-08-19T05:19:00;10.75;;;9.85;;
18336;SDS011;9294;51.106;7.028;2022-08-19T05:21:46;8.90;;;8.25;;
18336;SDS011;9294;51.106;7.028;2022-08-19T05:24:30;8.18;;;7.68;;
18336;SDS011;9294;51.106;7.028;2022-08-19T05:26:59;8.63;;;7.90;;
18336;SDS011;9294;51.106;7.028;2022-08-19T05:29:27;9.52;;;8.63;;
18336;SDS011;9294;51.106;7.028;2022-08-19T05:31:56;10.15;;;9.35;;
18336;SDS011;9294;51.106;7.028;2022-08-19T05:34:24;10.55;;;9.65;;
18336;SDS011;9294;51.106;7.028;2022-08-19T05:36:54;10.30;;;9.60;;
18336;SDS011;9294;51.106;7.028;2022-08-19T05:39:24;11.50;;;10.50;;
18336;SDS011;9294;51.106;7.028;2022-08-19T05:41:53;10.77;;;9.98;;
18336;SDS011;9294;51.106;7.028;2022-08-19T05:44:22;11.07;;;10.18;;
18336;SDS011;9294;51.106;7.028;2022-08-19T05:46:49;10.90;;;10.00;;
18336;SDS011;9294;51.106;7.028;2022-08-19T05:49:18;11.13;;;10.23;;
18336;SDS011;9294;51.106;7.028;2022-08-19T05:51:46;11.10;;;10.20;;
18336;SDS011;9294;51.106;7.028;2022-08-19T05:54:14;12.70;;;11.70;;
18336;SDS011;9294;51.106;7.028;2022-08-19T05:56:42;12.10;;;11.00;;
18336;SDS011;9294;51.106;7.028;2022-08-19T05:59:12;11.65;;;10.60;;
18336;SDS011;9294;51.106;7.028;2022-08-19T06:01:40;11.65;;;10.75;;
18336;SDS011;9294;51.106;7.028;2022-08-19T06:04:08;12.85;;;11.85;;
18336;SDS011;9294;51.106;7.028;2022-08-19T06:06:35;14.23;;;12.93;;
18336;SDS011;9294;51.106;7.028;2022-08-19T06:09:03;13.45;;;12.25;;
18336;SDS011;9294;51.106;7.028;2022-08-19T06:11:35;14.90;;;13.45;;
18336;SDS011;9294;51.106;7.028;2022-08-19T06:14:03;13.80;;;12.60;;
18336;SDS011;9294;51.106;7.028;2022-08-19T06:16:33;14.25;;;13.02;;
18336;SDS011;9294;51.106;7.028;2022-08-19T06:19:00;15.60;;;14.30;;
18336;SDS011;9294;51.106;7.028;2022-08-19T06:21:28;14.93;;;13.65;;
18336;SDS011;9294;51.106;7.028;2022-08-19T06:23:56;15.63;;;14.38;;
18336;SDS011;9294;51.106;7.028;2022-08-19T06:26:24;15.43;;;14.07;;
18336;SDS011;9294;51.106;7.028;2022-08-19T06:28:52;13.85;;;12.65;;
18336;SDS011;9294;51.106;7.028;2022-08-19T06:31:20;15.35;;;14.07;;
18336;SDS011;9294;51.106;7.028;2022-08-19T06:33:48;16.50;;;15.02;;
18336;SDS011;9294;51.106;7.028;2022-08-19T06:36:19;20.88;;;15.05;;
18336;SDS011;9294;51.106;7.028;2022-08-19T06:38:46;18.25;;;16.48;;
18336;SDS011;9294;51.106;7.028;2022-08-19T06:41:13;18.58;;;16.98;;
18336;SDS011;9294;51.106;7.028;2022-08-19T06:43:40;19.48;;;17.70;;
18336;SDS011;9294;51.106;7.028;2022-08-19T06:46:13;18.92;;;17.23;;
18336;SDS011;9294;51.106;7.028;2022-08-19T06:48:41;18.52;;;17.02;;
18336;SDS011;9294;51.106;7.028;2022-08-19T06:51:08;19.55;;;17.65;;
18336;SDS011;9294;51.106;7.028;2022-08-19T06:53:35;19.00;;;16.90;;
18336;SDS011;9294;51.106;7.028;2022-08-19T06:56:04;16.30;;;14.65;;
18336;SDS011;9294;51.106;7.028;2022-08-19T06:58:31;17.70;;;14.75;;
18336;SDS011;9294;51.106;7.028;2022-08-19T07:00:59;15.65;;;14.20;;
18336;SDS011;9294;51.106;7.028;2022-08-19T07:03:29;16.73;;;13.90;;
18336;SDS011;9294;51.106;7.028;2022-08-19T07:05:57;14.02;;;12.75;;
18336;SDS011;9294;51.106;7.028;2022-08-19T07:08:25;16.63;;;13.35;;
18336;SDS011;9294;51.106;7.028;2022-08-19T07:10:52;13.35;;;12.07;;
18336;SDS011;9294;51.106;7.028;2022-08-19T07:13:20;14.30;;;12.73;;
18336;SDS011;9294;51.106;7.028;2022-08-19T07:15:47;13.65;;;12.45;;
18336;SDS011;9294;51.106;7.028;2022-08-19T07:18:15;13.32;;;12.15;;
18336;SDS011;9294;51.106;7.028;2022-08-19T07:20:43;13.63;;;12.23;;
18336;SDS011;9294;51.106;7.028;2022-08-19T07:23:10;13.10;;;11.90;;
18336;SDS011;9294;51.106;7.028;2022-08-19T07:25:37;13.43;;;12.13;;
18336;SDS011;9294;51.106;7.028;2022-08-19T07:28:05;16.95;;;15.45;;
18336;SDS011;9294;51.106;7.028;2022-08-19T07:30:35;17.52;;;15.90;;
18336;SDS011;9294;51.106;7.028;2022-08-19T07:33:02;17.55;;;16.13;;
18336;SDS011;9294;51.106;7.028;2022-08-19T07:35:30;18.88;;;17.17;;
18336;SDS011;9294;51.106;7.028;2022-08-19T07:38:00;20.02;;;18.23;;
18336;SDS011;9294;51.106;7.028;2022-08-19T07:40:28;19.95;;;18.05;;
18336;SDS011;9294;51.106;7.028;2022-08-19T07:42:56;19.73;;;17.90;;
18336;SDS011;9294;51.106;7.028;2022-08-19T07:45:23;20.67;;;18.67;;
18336;SDS011;9294;51.106;7.028;2022-08-19T07:47:50;21.77;;;19.63;;
18336;SDS011;9294;51.106;7.028;2022-08-19T07:50:18;21.30;;;19.27;;
18336;SDS011;9294;51.106;7.028;2022-08-19T07:52:45;20.95;;;18.95;;
18336;SDS011;9294;51.106;7.028;2022-08-19T07:55:17;21.33;;;19.33;;
18336;SDS011;9294;51.106;7.028;2022-08-19T07:57:44;22.08;;;20.05;;
18336;SDS011;9294;51.106;7.028;2022-08-19T08:00:11;25.02;;;22.40;;
18336;SDS011;9294;51.106;7.028;2022-08-19T08:02:39;24.92;;;22.52;;
18336;SDS011;9294;51.106;7.028;2022-08-19T08:05:07;24.08;;;21.70;;
18336;SDS011;9294;51.106;7.028;2022-08-19T08:07:52;23.00;;;20.75;;
18336;SDS011;9294;51.106;7.028;2022-08-19T08:10:37;24.02;;;21.75;;
18336;SDS011;9294;51.106;7.028;2022-08-19T08:13:04;22.38;;;20.27;;
18336;SDS011;9294;51.106;7.028;2022-08-19T08:15:31;22.33;;;20.23;;
18336;SDS011;9294;51.106;7.028;2022-08-19T08:17:59;22.30;;;20.00;;
18336;SDS011;9294;51.106;7.028;2022-08-19T08:20:25;25.77;;;20.00;;
18336;SDS011;9294;51.106;7.028;2022-08-19T08:22:52;23.92;;;19.80;;
18336;SDS011;9294;51.106;7.028;2022-08-19T08:25:38;21.25;;;19.17;;
18336;SDS011;9294;51.106;7.028;2022-08-19T08:28:05;20.50;;;18.50;;
18336;SDS011;9294;51.106;7.028;2022-08-19T08:30:34;20.08;;;18.13;;
18336;SDS011;9294;51.106;7.028;2022-08-19T08:33:02;19.25;;;17.40;;
18336;SDS011;9294;51.106;7.028;2022-08-19T08:35:30;19.75;;;18.08;;
18336;SDS011;9294;51.106;7.028;2022-08-19T08:37:56;17.98;;;16.48;;
18336;SDS011;9294;51.106;7.028;2022-08-19T08:40:26;17.92;;;16.05;;
18336;SDS011;9294;51.106;7.028;2022-08-19T08:42:57;16.60;;;15.30;;
18336;SDS011;9294;51.106;7.028;2022-08-19T08:45:27;16.15;;;14.75;;
18336;SDS011;9294;51.106;7.028;2022-08-19T08:47:55;17.42;;;15.73;;
18336;SDS011;9294;51.106;7.028;2022-08-19T08:50:25;15.77;;;14.18;;
18336;SDS011;9294;51.106;7.028;2022-08-19T08:52:56;15.88;;;14.40;;
18336;SDS011;9294;51.106;7.028;2022-08-19T08:55:24;15.52;;;14.15;;
18336;SDS011;9294;51.106;7.028;2022-08-19T08:57:53;17.05;;;14.43;;
18336;SDS011;9294;51.106;7.028;2022-08-19T09:00:24;15.52;;;13.48;;
18336;SDS011;9294;51.106;7.028;2022-08-19T09:02:52;15.18;;;13.75;;
18336;SDS011;9294;51.106;7.028;2022-08-19T09:05:19;16.33;;;13.30;;
18336;SDS011;9294;51.106;7.028;2022-08-19T09:07:50;16.77;;;13.55;;
18336;SDS011;9294;51.106;7.028;2022-08-19T09:10:21;13.65;;;12.45;;
18336;SDS011;9294;51.106;7.028;2022-08-19T09:12:56;14.52;;;12.85;;
18336;SDS011;9294;51.106;7.028;2022-08-19T09:15:36;14.05;;;12.77;;
18336;SDS011;9294;51.106;7.028;2022-08-19T09:18:05;14.07;;;12.40;;
18336;SDS011;9294;51.106;7.028;2022-08-19T09:20:32;13.98;;;12.30;;
18336;SDS011;9294;51.106;7.028;2022-08-19T09:22:59;12.57;;;11.38;;
18336;SDS011;9294;51.106;7.028;2022-08-19T09:25:26;13.63;;;12.23;;
18336;SDS011;9294;51.106;7.028;2022-08-19T09:27:54;12.48;;;11.38;;
18336;SDS011;9294;51.106;7.028;2022-08-19T09:30:22;12.23;;;11.20;;
18336;SDS011;9294;51.106;7.028;2022-08-19T09:32:51;11.85;;;10.77;;
18336;SDS011;9294;51.106;7.028;2022-08-19T09:35:19;11.93;;;10.70;;
18336;SDS011;9294;51.106;7.028;2022-08-19T09:37:47;11.38;;;10.20;;
18336;SDS011;9294;51.106;7.028;2022-08-19T09:40:15;11.07;;;10.15;;
18336;SDS011;9294;51.106;7.028;2022-08-19T09:42:42;10.68;;;9.70;;
18336;SDS011;9294;51.106;7.028;2022-08-19T09:45:11;11.77;;;10.63;;
18336;SDS011;9294;51.106;7.028;2022-08-19T09:47:38;11.57;;;10.43;;
18336;SDS011;9294;51.106;7.028;2022-08-19T09:50:08;10.95;;;10.05;;
18336;SDS011;9294;51.106;7.028;2022-08-19T09:52:36;12.10;;;10.88;;
18336;SDS011;9294;51.106;7.028;2022-08-19T09:55:03;11.13;;;10.07;;
18336;SDS011;9294;51.106;7.028;2022-08-19T09:57:30;10.75;;;9.60;;
18336;SDS011;9294;51.106;7.028;2022-08-19T09:59:58;11.68;;;10.55;;
18336;SDS011;9294;51.106;7.028;2022-08-19T10:02:24;10.70;;;9.75;;
18336;SDS011;9294;51.106;7.028;2022-08-19T10:04:52;11.82;;;10.63;;
18336;SDS011;9294;51.106;7.028;2022-08-19T10:07:37;11.05;;;10.00;;
18336;SDS011;9294;51.106;7.028;2022-08-19T10:10:04;11.52;;;10.40;;
18336;SDS011;9294;51.106;7.028;2022-08-19T10:12:32;10.38;;;9.52;;
18336;SDS011;9294;51.106;7.028;2022-08-19T10:14:59;11.40;;;10.32;;
18336;SDS011;9294;51.106;7.028;2022-08-19T10:17:26;10.23;;;9.50;;
18336;SDS011;9294;51.106;7.028;2022-08-19T10:19:53;10.20;;;9.50;;
18336;SDS011;9294;51.106;7.028;2022-08-19T10:22:20;10.60;;;9.55;;
18336;SDS011;9294;51.106;7.028;2022-08-19T10:24:49;10.45;;;9.63;;
18336;SDS011;9294;51.106;7.028;2022-08-19T10:27:16;10.23;;;9.30;;
18336;SDS011;9294;51.106;7.028;2022-08-19T10:29:43;10.80;;;9.88;;
18336;SDS011;9294;51.106;7.028;2022-08-19T10:32:12;10.55;;;9.68;;
18336;SDS011;9294;51.106;7.028;2022-08-19T10:34:39;10.05;;;9.35;;
18336;SDS011;9294;51.106;7.028;2022-08-19T10:37:06;10.95;;;9.90;;
18336;SDS011;9294;51.106;7.028;2022-08-19T10:39:34;10.93;;;10.05;;
18336;SDS011;9294;51.106;7.028;2022-08-19T10:42:05;10.75;;;9.98;;
18336;SDS011;9294;51.106;7.028;2022-08-19T10:44:32;10.77;;;10.00;;
18336;SDS011;9294;51.106;7.028;2022-08-19T10:47:00;10.02;;;9.32;;
18336;SDS011;9294;51.106;7.028;2022-08-19T10:49:28;10.88;;;9.88;;
18336;SDS011;9294;51.106;7.028;2022-08-19T10:51:55;10.18;;;9.38;;
18336;SDS011;9294;51.106;7.028;2022-08-19T10:54:40;10.60;;;9.80;;
18336;SDS011;9294;51.106;7.028;2022-08-19T10:57:26;9.88;;;8.98;;
18336;SDS011;9294;51.106;7.028;2022-08-19T10:59:56;10.68;;;9.77;;
18336;SDS011;9294;51.106;7.028;2022-08-19T11:02:23;9.88;;;9.05;;
18336;SDS011;9294;51.106;7.028;2022-08-19T11:04:50;9.68;;;9.07;;
18336;SDS011;9294;51.106;7.028;2022-08-19T11:07:17;9.38;;;8.68;;
18336;SDS011;9294;51.106;7.028;2022-08-19T11:09:46;10.48;;;9.68;;
18336;SDS011;9294;51.106;7.028;2022-08-19T11:12:12;10.07;;;9.38;;
18336;SDS011;9294;51.106;7.028;2022-08-19T11:14:41;9.98;;;9.13;;
18336;SDS011;9294;51.106;7.028;2022-08-19T11:17:08;10.70;;;9.77;;
18336;SDS011;9294;51.106;7.028;2022-08-19T11:19:37;10.15;;;9.35;;
18336;SDS011;9294;51.106;7.028;2022-08-19T11:22:06;10.70;;;9.88;;
18336;SDS011;9294;51.106;7.028;2022-08-19T11:24:34;10.10;;;9.32;;
18336;SDS011;9294;51.106;7.028;2022-08-19T11:27:02;10.02;;;9.25;;
18336;SDS011;9294;51.106;7.028;2022-08-19T11:29:30;10.00;;;9.20;;
18336;SDS011;9294;51.106;7.028;2022-08-19T11:32:02;10.63;;;9.57;;
18336;SDS011;9294;51.106;7.028;2022-08-19T11:34:30;10.30;;;9.52;;
18336;SDS011;9294;51.106;7.028;2022-08-19T11:36:57;9.75;;;9.05;;
18336;SDS011;9294;51.106;7.028;2022-08-19T11:39:25;9.55;;;8.90;;
18336;SDS011;9294;51.106;7.028;2022-08-19T11:41:52;10.77;;;9.98;;
18336;SDS011;9294;51.106;7.028;2022-08-19T11:44:19;11.00;;;9.85;;
18336;SDS011;9294;51.106;7.028;2022-08-19T11:46:47;9.55;;;8.90;;
18336;SDS011;9294;51.106;7.028;2022-08-19T11:49:16;10.90;;;10.05;;
18336;SDS011;9294;51.106;7.028;2022-08-19T11:51:44;9.45;;;8.82;;
18336;SDS011;9294;51.106;7.028;2022-08-19T11:54:12;10.25;;;9.35;;
18336;SDS011;9294;51.106;7.028;2022-08-19T11:56:41;9.70;;;8.90;;
18336;SDS011;9294;51.106;7.028;2022-08-19T11:59:08;10.02;;;9.23;;
18336;SDS011;9294;51.106;7.028;2022-08-19T12:01:35;10.13;;;9.25;;
18336;SDS011;9294;51.106;7.028;2022-08-19T12:04:02;9.40;;;8.75;;
18336;SDS011;9294;51.106;7.028;2022-08-19T12:06:32;9.45;;;8.70;;
18336;SDS011;9294;51.106;7.028;2022-08-19T12:09:00;10.38;;;9.65;;
18336;SDS011;9294;51.106;7.028;2022-08-19T12:11:27;10.27;;;9.57;;
18336;SDS011;9294;51.106;7.028;2022-08-19T12:13:54;10.65;;;9.85;;
18336;SDS011;9294;51.106;7.028;2022-08-19T12:16:22;9.73;;;8.90;;
18336;SDS011;9294;51.106;7.028;2022-08-19T12:18:50;10.52;;;9.60;;
18336;SDS011;9294;51.106;7.028;2022-08-19T12:21:18;10.13;;;9.32;;
18336;SDS011;9294;51.106;7.028;2022-08-19T12:23:48;9.93;;;9.18;;
18336;SDS011;9294;51.106;7.028;2022-08-19T12:26:16;10.13;;;9.52;;
18336;SDS011;9294;51.106;7.028;2022-08-19T12:28:44;10.85;;;9.95;;
18336;SDS011;9294;51.106;7.028;2022-08-19T12:31:10;9.93;;;9.10;;
18336;SDS011;9294;51.106;7.028;2022-08-19T12:33:37;9.73;;;8.93;;
18336;SDS011;9294;51.106;7.028;2022-08-19T12:36:06;10.15;;;9.23;;
18336;SDS011;9294;51.106;7.028;2022-08-19T12:38:34;8.88;;;8.18;;
18336;SDS011;9294;51.106;7.028;2022-08-19T12:41:03;9.55;;;8.95;;
18336;SDS011;9294;51.106;7.028;2022-08-19T12:43:31;9.52;;;8.82;;
18336;SDS011;9294;51.106;7.028;2022-08-19T12:45:59;10.00;;;9.15;;
18336;SDS011;9294;51.106;7.028;2022-08-19T12:48:26;11.75;;;9.32;;
18336;SDS011;9294;51.106;7.028;2022-08-19T12:50:54;9.38;;;8.63;;
18336;SDS011;9294;51.106;7.028;2022-08-19T12:53:21;9.85;;;8.80;;
18336;SDS011;9294;51.106;7.028;2022-08-19T12:55:53;10.18;;;9.27;;
18336;SDS011;9294;51.106;7.028;2022-08-19T12:58:23;10.25;;;9.43;;
18336;SDS011;9294;51.106;7.028;2022-08-19T13:00:50;10.02;;;9.23;;
18336;SDS011;9294;51.106;7.028;2022-08-19T13:03:17;9.95;;;9.18;;
18336;SDS011;9294;51.106;7.028;2022-08-19T13:05:44;10.10;;;9.40;;
18336;SDS011;9294;51.106;7.028;2022-08-19T13:08:11;10.90;;;8.57;;
18336;SDS011;9294;51.106;7.028;2022-08-19T13:10:38;9.75;;;8.95;;
18336;SDS011;9294;51.106;7.028;2022-08-19T13:13:06;9.90;;;9.10;;
18336;SDS011;9294;51.106;7.028;2022-08-19T13:15:38;9.90;;;8.90;;
18336;SDS011;9294;51.106;7.028;2022-08-19T13:18:06;9.45;;;8.65;;
18336;SDS011;9294;51.106;7.028;2022-08-19T13:20:34;10.98;;;10.00;;
18336;SDS011;9294;51.106;7.028;2022-08-19T13:23:02;11.00;;;9.98;;
18336;SDS011;9294;51.106;7.028;2022-08-19T13:25:29;10.18;;;9.13;;
18336;SDS011;9294;51.106;7.028;2022-08-19T13:27:57;11.30;;;9.90;;
18336;SDS011;9294;51.106;7.028;2022-08-19T13:30:24;10.50;;;9.65;;
18336;SDS011;9294;51.106;7.028;2022-08-19T13:33:09;11.00;;;10.00;;
18336;SDS011;9294;51.106;7.028;2022-08-19T13:35:36;11.02;;;10.10;;
18336;SDS011;9294;51.106;7.028;2022-08-19T13:38:03;10.27;;;9.18;;
18336;SDS011;9294;51.106;7.028;2022-08-19T13:40:31;10.10;;;9.30;;
18336;SDS011;9294;51.106;7.028;2022-08-19T13:42:59;10.27;;;9.27;;
18336;SDS011;9294;51.106;7.028;2022-08-19T13:45:28;11.20;;;9.77;;
18336;SDS011;9294;51.106;7.028;2022-08-19T13:47:57;9.73;;;8.90;;
18336;SDS011;9294;51.106;7.028;2022-08-19T13:50:26;10.05;;;9.15;;
18336;SDS011;9294;51.106;7.028;2022-08-19T13:52:54;9.25;;;8.32;;
18336;SDS011;9294;51.106;7.028;2022-08-19T13:55:21;9.27;;;8.57;;
18336;SDS011;9294;51.106;7.028;2022-08-19T13:57:49;9.93;;;9.32;;
18336;SDS011;9294;51.106;7.028;2022-08-19T14:00:18;10.73;;;9.68;;
18336;SDS011;9294;51.106;7.028;2022-08-19T14:02:45;10.23;;;9.48;;
18336;SDS011;9294;51.106;7.028;2022-08-19T14:05:13;10.02;;;9.02;;
18336;SDS011;9294;51.106;7.028;2022-08-19T14:07:42;9.52;;;8.80;;
18336;SDS011;9294;51.106;7.028;2022-08-19T14:10:10;9.75;;;9.05;;
18336;SDS011;9294;51.106;7.028;2022-08-19T14:12:39;10.25;;;9.40;;
18336;SDS011;9294;51.106;7.028;2022-08-19T14:15:07;10.10;;;9.10;;
18336;SDS011;9294;51.106;7.028;2022-08-19T14:17:37;9.60;;;8.90;;
18336;SDS011;9294;51.106;7.028;2022-08-19T14:20:05;8.93;;;8.23;;
18336;SDS011;9294;51.106;7.028;2022-08-19T14:22:35;8.98;;;8.27;;
18336;SDS011;9294;51.106;7.028;2022-08-19T14:25:04;9.68;;;8.98;;
18336;SDS011;9294;51.106;7.028;2022-08-19T14:27:33;10.35;;;9.55;;
18336;SDS011;9294;51.106;7.028;2022-08-19T14:30:00;8.65;;;7.95;;
18336;SDS011;9294;51.106;7.028;2022-08-19T14:32:27;9.73;;;8.18;;
18336;SDS011;9294;51.106;7.028;2022-08-19T14:34:54;8.73;;;8.05;;
18336;SDS011;9294;51.106;7.028;2022-08-19T14:37:21;9.63;;;8.85;;
18336;SDS011;9294;51.106;7.028;2022-08-19T14:39:48;9.10;;;8.25;;
18336;SDS011;9294;51.106;7.028;2022-08-19T14:42:16;12.98;;;8.50;;
18336;SDS011;9294;51.106;7.028;2022-08-19T14:44:43;9.63;;;8.93;;
18336;SDS011;9294;51.106;7.028;2022-08-19T14:47:10;9.50;;;8.65;;
18336;SDS011;9294;51.106;7.028;2022-08-19T14:49:37;10.48;;;8.95;;
18336;SDS011;9294;51.106;7.028;2022-08-19T14:52:05;8.55;;;7.75;;
18336;SDS011;9294;51.106;7.028;2022-08-19T14:54:33;11.23;;;7.35;;
18336;SDS011;9294;51.106;7.028;2022-08-19T14:57:00;8.05;;;7.32;;